createdAt,value
2022-10-17T00:00:03.765Z,0.00
2022-10-17T00:01:03.861Z,0.00
2022-10-17T00:02:03.744Z,0.00
2022-10-17T00:03:03.752Z,0.00
2022-10-17T00:04:03.713Z,0.00
2022-10-17T00:05:03.712Z,0.00
2022-10-17T00:06:03.705Z,0.00
2022-10-17T00:07:03.712Z,0.00
2022-10-17T00:08:03.698Z,0.00
2022-10-17T00:09:03.678Z,0.00
2022-10-17T00:10:03.646Z,0.00
2022-10-17T00:11:11.394Z,0.00
2022-10-17T00:12:13.733Z,0.00
2022-10-17T00:13:11.299Z,0.00
2022-10-17T00:14:11.263Z,0.00
2022-10-17T00:16:14.072Z,0.00
2022-10-17T00:17:14.065Z,0.00
2022-10-17T00:18:13.989Z,0.00
2022-10-17T00:19:14.083Z,0.00
2022-10-17T00:20:13.939Z,0.00
2022-10-17T00:21:13.910Z,0.00
2022-10-17T00:22:13.899Z,0.00
2022-10-17T00:23:13.900Z,0.00
2022-10-17T00:24:13.880Z,0.00
2022-10-17T00:25:13.891Z,0.00
2022-10-17T00:26:13.850Z,0.00
2022-10-17T00:27:13.835Z,0.00
2022-10-17T00:28:13.844Z,0.00
2022-10-17T00:29:13.818Z,0.00
2022-10-17T00:30:13.820Z,0.00
2022-10-17T00:31:13.798Z,0.00
2022-10-17T00:32:13.779Z,0.00
2022-10-17T00:33:13.806Z,0.00
2022-10-17T00:34:13.752Z,0.00
2022-10-17T00:35:13.763Z,0.00
2022-10-17T00:36:13.765Z,0.00
2022-10-17T00:37:13.724Z,0.00
2022-10-17T00:38:13.716Z,0.00
2022-10-17T00:39:13.716Z,0.00
2022-10-17T00:40:13.695Z,0.00
2022-10-17T00:41:23.730Z,0.00
2022-10-17T00:42:21.360Z,0.00
2022-10-17T00:43:21.372Z,0.00
2022-10-17T00:44:13.718Z,0.00
2022-10-17T00:45:13.715Z,0.00
2022-10-17T00:46:13.665Z,0.00
2022-10-17T00:47:13.749Z,0.00
2022-10-17T00:48:13.604Z,0.00
2022-10-17T00:49:13.611Z,0.00
2022-10-17T00:50:13.585Z,0.00
2022-10-17T00:51:13.616Z,0.00
2022-10-17T00:52:13.562Z,0.00
2022-10-17T00:53:13.551Z,0.00
2022-10-17T00:54:13.560Z,0.00
2022-10-17T00:55:13.531Z,0.00
2022-10-17T00:56:13.529Z,0.00
2022-10-17T00:57:13.519Z,0.00
2022-10-17T00:58:13.508Z,0.00
2022-10-17T00:59:13.557Z,0.00
2022-10-17T01:00:13.481Z,0.00
2022-10-17T01:01:13.533Z,0.00
2022-10-17T01:02:13.464Z,0.00
2022-10-17T01:03:13.433Z,0.00
2022-10-17T01:04:13.433Z,0.00
2022-10-17T01:05:13.445Z,0.00
2022-10-17T01:06:13.405Z,0.00
2022-10-17T01:07:13.403Z,0.00
2022-10-17T01:08:13.389Z,0.00
2022-10-17T01:09:13.393Z,0.00
2022-10-17T01:10:13.451Z,0.00
2022-10-17T01:11:13.355Z,0.00
2022-10-17T01:12:13.344Z,0.00
2022-10-17T01:13:13.372Z,0.00
2022-10-17T01:14:13.323Z,0.00
2022-10-17T01:15:13.305Z,0.00
2022-10-17T01:16:13.301Z,0.00
2022-10-17T01:17:13.291Z,0.00
2022-10-17T01:18:13.268Z,0.00
2022-10-17T01:19:13.320Z,0.00
2022-10-17T01:20:13.270Z,0.00
2022-10-17T01:21:13.249Z,0.00
2022-10-17T01:22:13.229Z,0.00
2022-10-17T01:23:13.218Z,0.00
2022-10-17T01:24:13.223Z,0.00
2022-10-17T01:25:13.206Z,0.00
2022-10-17T01:26:13.188Z,0.00
2022-10-17T01:27:13.171Z,0.00
2022-10-17T01:28:13.163Z,0.00
2022-10-17T01:29:13.165Z,0.00
2022-10-17T01:30:13.133Z,0.00
2022-10-17T01:31:13.136Z,0.00
2022-10-17T01:32:13.157Z,0.00
2022-10-17T01:33:13.108Z,0.00
2022-10-17T01:34:13.103Z,0.00
2022-10-17T01:35:13.090Z,0.00
2022-10-17T01:36:13.074Z,0.00
2022-10-17T01:37:13.078Z,0.00
2022-10-17T01:38:13.051Z,0.00
2022-10-17T01:39:13.040Z,0.00
2022-10-17T01:40:13.047Z,0.00
2022-10-17T01:41:13.017Z,0.00
2022-10-17T01:42:13.012Z,0.00
2022-10-17T01:43:12.995Z,0.00
2022-10-17T01:44:12.993Z,0.00
2022-10-17T01:45:13.021Z,0.00
2022-10-17T01:46:13.000Z,0.00
2022-10-17T01:47:12.955Z,0.00
2022-10-17T01:48:12.939Z,0.00
2022-10-17T01:49:12.936Z,0.00
2022-10-17T01:50:12.921Z,0.00
2022-10-17T01:51:12.926Z,0.00
2022-10-17T01:52:12.938Z,0.00
2022-10-17T01:53:23.795Z,0.00
2022-10-17T01:54:12.905Z,0.00
2022-10-17T01:55:12.917Z,0.00
2022-10-17T01:56:12.991Z,0.00
2022-10-17T01:57:12.860Z,0.00
2022-10-17T01:58:12.866Z,0.00
2022-10-17T01:59:12.819Z,0.00
2022-10-17T02:00:12.862Z,0.00
2022-10-17T02:01:12.945Z,0.00
2022-10-17T02:02:12.793Z,0.00
2022-10-17T02:03:12.852Z,0.00
2022-10-17T02:04:12.787Z,0.00
2022-10-17T02:05:12.757Z,0.00
2022-10-17T02:06:12.750Z,0.00
2022-10-17T02:07:12.745Z,0.00
2022-10-17T02:08:12.741Z,0.00
2022-10-17T02:09:12.748Z,0.00
2022-10-17T02:10:12.718Z,0.00
2022-10-17T02:11:12.715Z,0.00
2022-10-17T02:12:12.692Z,0.00
2022-10-17T02:13:12.680Z,0.00
2022-10-17T02:15:12.666Z,0.00
2022-10-17T02:16:12.673Z,0.00
2022-10-17T02:17:12.627Z,0.00
2022-10-17T02:18:12.641Z,0.00
2022-10-17T02:19:12.607Z,0.00
2022-10-17T02:20:12.605Z,0.00
2022-10-17T02:21:12.595Z,0.00
2022-10-17T02:22:12.610Z,0.00
2022-10-17T02:23:12.598Z,0.00
2022-10-17T02:24:12.558Z,0.00
2022-10-17T02:25:12.551Z,0.00
2022-10-17T02:26:12.531Z,0.00
2022-10-17T02:27:12.543Z,0.00
2022-10-17T02:28:12.566Z,0.00
2022-10-17T02:29:12.500Z,0.00
2022-10-17T02:30:12.483Z,0.00
2022-10-17T02:31:12.481Z,0.00
2022-10-17T02:32:12.544Z,0.00
2022-10-17T02:33:12.455Z,0.00
2022-10-17T02:34:12.453Z,0.00
2022-10-17T02:35:12.481Z,0.00
2022-10-17T02:36:12.418Z,0.00
2022-10-17T02:37:12.405Z,0.00
2022-10-17T02:38:12.421Z,0.00
2022-10-17T02:39:12.389Z,0.00
2022-10-17T02:40:12.382Z,0.00
2022-10-17T02:41:12.389Z,0.00
2022-10-17T02:42:12.391Z,0.00
2022-10-17T02:43:12.346Z,0.00
2022-10-17T02:44:12.330Z,0.00
2022-10-17T02:45:12.318Z,0.00
2022-10-17T02:46:12.311Z,0.00
2022-10-17T02:47:12.302Z,0.00
2022-10-17T02:48:12.325Z,0.00
2022-10-17T02:49:12.272Z,0.00
2022-10-17T02:50:12.279Z,0.00
2022-10-17T02:51:12.266Z,0.00
2022-10-17T02:52:12.269Z,0.00
2022-10-17T02:53:12.253Z,0.00
2022-10-17T02:54:12.254Z,0.00
2022-10-17T02:55:12.217Z,0.00
2022-10-17T02:56:12.203Z,0.00
2022-10-17T02:57:12.236Z,0.00
2022-10-17T02:58:12.184Z,0.00
2022-10-17T02:59:22.332Z,0.00
2022-10-17T03:00:22.318Z,0.00
2022-10-17T03:01:20.923Z,0.00
2022-10-17T03:02:20.828Z,0.00
2022-10-17T03:03:12.237Z,0.00
2022-10-17T03:04:12.207Z,0.00
2022-10-17T03:05:12.147Z,0.00
2022-10-17T03:06:12.118Z,0.00
2022-10-17T03:07:12.081Z,0.00
2022-10-17T03:08:12.079Z,0.00
2022-10-17T03:09:12.087Z,0.00
2022-10-17T03:10:12.065Z,0.00
2022-10-17T03:11:12.054Z,0.00
2022-10-17T03:12:12.072Z,0.00
2022-10-17T03:13:12.038Z,0.00
2022-10-17T03:14:12.003Z,0.00
2022-10-17T03:15:12.027Z,0.00
2022-10-17T03:16:11.983Z,0.00
2022-10-17T03:17:11.969Z,0.00
2022-10-17T03:18:12.006Z,0.00
2022-10-17T03:19:11.971Z,0.00
2022-10-17T03:20:11.929Z,0.00
2022-10-17T03:21:11.943Z,0.00
2022-10-17T03:22:11.968Z,0.00
2022-10-17T03:23:11.904Z,0.00
2022-10-17T03:24:11.900Z,0.00
2022-10-17T03:25:11.889Z,0.00
2022-10-17T03:26:11.899Z,0.00
2022-10-17T03:27:11.867Z,0.00
2022-10-17T03:28:11.879Z,0.00
2022-10-17T03:29:11.891Z,0.00
2022-10-17T03:30:11.839Z,0.00
2022-10-17T03:31:21.895Z,0.00
2022-10-17T03:32:11.929Z,0.00
2022-10-17T03:33:11.909Z,0.00
2022-10-17T03:34:11.865Z,0.00
2022-10-17T03:35:14.853Z,0.00
2022-10-17T03:36:11.773Z,0.00
2022-10-17T03:37:11.767Z,0.00
2022-10-17T03:38:11.742Z,0.00
2022-10-17T03:39:11.772Z,0.00
2022-10-17T03:40:11.728Z,0.00
2022-10-17T03:41:11.713Z,0.00
2022-10-17T03:42:11.702Z,0.00
2022-10-17T03:43:11.683Z,0.00
2022-10-17T03:44:11.683Z,0.00
2022-10-17T03:45:11.689Z,0.00
2022-10-17T03:46:11.684Z,0.00
2022-10-17T03:47:14.079Z,0.00
2022-10-17T03:48:11.649Z,0.00
2022-10-17T03:49:11.640Z,0.00
2022-10-17T03:50:11.617Z,0.00
2022-10-17T03:51:11.638Z,0.00
2022-10-17T03:52:11.597Z,0.00
2022-10-17T03:53:11.591Z,0.00
2022-10-17T03:54:11.584Z,0.00
2022-10-17T03:55:11.568Z,0.00
2022-10-17T03:56:11.569Z,0.00
2022-10-17T03:57:11.549Z,0.00
2022-10-17T03:58:11.561Z,0.00
2022-10-17T03:59:11.544Z,0.00
2022-10-17T04:00:11.512Z,0.00
2022-10-17T04:01:11.604Z,0.00
2022-10-17T04:02:11.530Z,0.00
2022-10-17T04:03:16.379Z,0.00
2022-10-17T04:04:12.483Z,0.00
2022-10-17T04:05:11.460Z,0.00
2022-10-17T04:06:11.451Z,0.00
2022-10-17T04:07:11.428Z,0.00
2022-10-17T04:08:11.446Z,0.00
2022-10-17T04:09:11.455Z,0.00
2022-10-17T04:10:11.420Z,0.00
2022-10-17T04:11:11.389Z,0.00
2022-10-17T04:12:11.387Z,0.00
2022-10-17T04:13:11.366Z,0.00
2022-10-17T04:14:11.386Z,0.00
2022-10-17T04:15:11.386Z,0.00
2022-10-17T04:16:11.337Z,0.00
2022-10-17T04:17:11.353Z,0.00
2022-10-17T04:18:11.380Z,0.00
2022-10-17T04:19:11.326Z,0.00
2022-10-17T04:20:11.313Z,0.00
2022-10-17T04:21:11.287Z,0.00
2022-10-17T04:22:11.285Z,0.00
2022-10-17T04:23:11.260Z,0.00
2022-10-17T04:24:11.273Z,0.00
2022-10-17T04:25:11.272Z,0.00
2022-10-17T04:26:11.230Z,0.00
2022-10-17T04:27:11.212Z,0.00
2022-10-17T04:28:11.211Z,0.00
2022-10-17T04:29:11.208Z,0.00
2022-10-17T04:30:11.190Z,0.00
2022-10-17T04:31:11.187Z,0.00
2022-10-17T04:32:11.162Z,0.00
2022-10-17T04:33:11.174Z,0.00
2022-10-17T04:34:11.141Z,0.00
2022-10-17T04:35:11.157Z,0.00
2022-10-17T04:36:11.123Z,0.00
2022-10-17T04:37:11.112Z,0.00
2022-10-17T04:38:11.102Z,0.00
2022-10-17T04:39:11.205Z,0.00
2022-10-17T04:40:11.094Z,0.00
2022-10-17T04:41:11.107Z,0.00
2022-10-17T04:42:11.052Z,0.00
2022-10-17T04:43:11.040Z,0.00
2022-10-17T04:44:11.020Z,0.00
2022-10-17T04:45:11.020Z,0.00
2022-10-17T04:46:11.011Z,0.00
2022-10-17T04:47:11.017Z,0.00
2022-10-17T04:48:10.978Z,0.00
2022-10-17T04:49:10.989Z,0.00
2022-10-17T04:50:10.956Z,0.00
2022-10-17T04:51:11.052Z,0.00
2022-10-17T04:52:10.951Z,0.00
2022-10-17T04:53:10.929Z,0.00
2022-10-17T04:54:10.929Z,0.00
2022-10-17T04:55:10.910Z,0.00
2022-10-17T04:56:10.922Z,0.00
2022-10-17T04:57:10.901Z,0.00
2022-10-17T04:58:10.882Z,0.00
2022-10-17T04:59:10.878Z,0.00
2022-10-17T05:00:10.867Z,0.00
2022-10-17T05:01:10.969Z,0.00
2022-10-17T05:02:10.834Z,0.00
2022-10-17T05:03:10.845Z,4.00
2022-10-17T05:04:10.838Z,4.00
2022-10-17T05:05:10.817Z,4.00
2022-10-17T05:06:10.864Z,0.00
2022-10-17T05:07:10.774Z,0.00
2022-10-17T05:08:10.796Z,4.00
2022-10-17T05:09:10.758Z,4.00
2022-10-17T05:10:10.763Z,4.00
2022-10-17T05:11:18.551Z,4.00
2022-10-17T05:12:10.859Z,4.00
2022-10-17T05:13:10.810Z,8.00
2022-10-17T05:14:10.830Z,8.00
2022-10-17T05:15:10.742Z,8.00
2022-10-17T05:16:10.717Z,12.00
2022-10-17T05:17:20.412Z,12.00
2022-10-17T05:19:23.082Z,24.00
2022-10-17T05:20:33.748Z,24.00
2022-10-17T05:21:23.208Z,28.00
2022-10-17T05:22:23.127Z,36.00
2022-10-17T05:23:23.133Z,40.00
2022-10-17T05:24:23.077Z,48.00
2022-10-17T05:25:23.013Z,56.00
2022-10-17T05:26:22.942Z,64.00
2022-10-17T05:27:22.965Z,72.00
2022-10-17T05:28:22.999Z,84.00
2022-10-17T05:29:22.899Z,96.00
2022-10-17T05:30:22.908Z,112.00
2022-10-17T05:31:22.890Z,124.00
2022-10-17T05:32:22.908Z,136.00
2022-10-17T05:33:22.903Z,148.00
2022-10-17T05:34:22.851Z,164.00
2022-10-17T05:35:22.854Z,180.00
2022-10-17T05:36:22.850Z,196.00
2022-10-17T05:37:22.829Z,212.00
2022-10-17T05:38:22.819Z,228.00
2022-10-17T05:39:22.829Z,244.00
2022-10-17T05:40:22.810Z,264.00
2022-10-17T05:41:22.822Z,284.00
2022-10-17T05:42:22.813Z,308.00
2022-10-17T05:43:22.767Z,332.00
2022-10-17T05:44:22.760Z,360.00
2022-10-17T05:45:22.744Z,388.00
2022-10-17T05:46:22.740Z,416.00
2022-10-17T05:47:22.735Z,448.00
2022-10-17T05:48:22.711Z,480.00
2022-10-17T05:49:40.023Z,512.00
2022-10-17T05:50:23.736Z,552.00
2022-10-17T05:51:22.702Z,592.00
2022-10-17T05:52:22.684Z,632.00
2022-10-17T05:53:22.676Z,676.00
2022-10-17T05:54:22.645Z,724.00
2022-10-17T05:55:22.638Z,764.00
2022-10-17T05:56:22.649Z,808.00
2022-10-17T05:57:22.648Z,848.00
2022-10-17T05:58:45.499Z,876.00
2022-10-17T05:59:23.582Z,912.00
2022-10-17T06:00:22.632Z,948.00
2022-10-17T06:01:22.602Z,984.00
2022-10-17T06:02:22.631Z,1020.00
2022-10-17T06:03:31.392Z,1056.00
2022-10-17T06:04:22.737Z,1096.00
2022-10-17T06:05:22.616Z,1128.00
2022-10-17T06:06:22.736Z,1164.00
2022-10-17T06:07:22.589Z,1204.00
2022-10-17T06:08:22.546Z,1244.00
2022-10-17T06:09:22.524Z,1280.00
2022-10-17T06:10:22.517Z,1324.00
2022-10-17T06:11:22.530Z,1348.00
2022-10-17T06:12:22.491Z,1368.00
2022-10-17T06:13:22.461Z,1384.00
2022-10-17T06:14:22.476Z,1400.00
2022-10-17T06:15:22.423Z,1416.00
2022-10-17T06:16:22.402Z,1440.00
2022-10-17T06:17:22.396Z,1464.00
2022-10-17T06:18:22.421Z,1500.00
2022-10-17T06:19:22.428Z,1536.00
2022-10-17T06:20:22.362Z,1572.00
2022-10-17T06:21:22.458Z,1620.00
2022-10-17T06:22:22.348Z,1664.00
2022-10-17T06:23:22.343Z,1712.00
2022-10-17T06:24:22.391Z,1748.00
2022-10-17T06:25:22.310Z,1780.00
2022-10-17T06:26:22.315Z,1792.00
2022-10-17T06:27:22.310Z,1800.00
2022-10-17T06:28:22.376Z,1808.00
2022-10-17T06:29:22.315Z,1804.00
2022-10-17T06:30:22.325Z,1796.00
2022-10-17T06:31:22.283Z,1788.00
2022-10-17T06:32:22.252Z,1800.00
2022-10-17T06:33:22.237Z,1836.00
2022-10-17T06:34:22.286Z,1876.00
2022-10-17T06:35:22.238Z,1900.00
2022-10-17T06:36:22.226Z,1932.00
2022-10-17T06:37:22.230Z,1984.00
2022-10-17T06:38:31.471Z,2048.00
2022-10-17T06:39:22.372Z,2128.00
2022-10-17T06:40:22.245Z,2220.00
2022-10-17T06:41:22.285Z,2300.00
2022-10-17T06:42:22.224Z,2376.00
2022-10-17T06:43:26.940Z,2436.00
2022-10-17T06:44:23.109Z,2500.00
2022-10-17T06:45:22.098Z,2580.00
2022-10-17T06:46:22.162Z,2656.00
2022-10-17T06:47:22.115Z,2712.00
2022-10-17T06:48:22.077Z,2756.00
2022-10-17T06:49:30.732Z,2788.00
2022-10-17T06:50:22.184Z,2828.00
2022-10-17T06:51:22.113Z,2900.00
2022-10-17T06:52:22.087Z,2948.00
2022-10-17T06:53:22.174Z,2952.00
2022-10-17T06:54:22.025Z,2976.00
2022-10-17T06:55:23.283Z,2996.00
2022-10-17T06:56:22.041Z,3028.00
2022-10-17T06:57:22.011Z,3024.00
2022-10-17T06:58:21.970Z,3012.00
2022-10-17T06:59:21.953Z,3012.00
2022-10-17T07:00:21.956Z,3040.00
2022-10-17T07:01:21.943Z,3080.00
2022-10-17T07:02:21.935Z,3096.00
2022-10-17T07:03:21.951Z,3052.00
2022-10-17T07:04:21.914Z,2992.00
2022-10-17T07:05:21.887Z,2968.00
2022-10-17T07:06:21.914Z,2984.00
2022-10-17T07:07:21.868Z,3012.00
2022-10-17T07:08:21.872Z,3024.00
2022-10-17T07:09:21.899Z,3016.00
2022-10-17T07:10:21.852Z,3016.00
2022-10-17T07:11:21.854Z,3012.00
2022-10-17T07:12:21.853Z,3056.00
2022-10-17T07:13:21.822Z,3116.00
2022-10-17T07:14:21.799Z,3176.00
2022-10-17T07:15:21.825Z,3212.00
2022-10-17T07:16:21.776Z,3248.00
2022-10-17T07:17:21.788Z,3244.00
2022-10-17T07:18:21.757Z,3248.00
2022-10-17T07:19:21.740Z,3252.00
2022-10-17T07:20:21.735Z,3264.00
2022-10-17T07:21:21.745Z,3260.00
2022-10-17T07:22:21.730Z,3288.00
2022-10-17T07:23:21.707Z,3264.00
2022-10-17T07:24:21.690Z,3252.00
2022-10-17T07:25:21.690Z,3244.00
2022-10-17T07:26:21.722Z,3260.00
2022-10-17T07:27:21.682Z,3272.00
2022-10-17T07:28:21.787Z,3268.00
2022-10-17T07:29:21.696Z,3256.00
2022-10-17T07:30:21.694Z,3256.00
2022-10-17T07:31:21.642Z,3244.00
2022-10-17T07:32:21.609Z,3204.00
2022-10-17T07:33:21.605Z,3180.00
2022-10-17T07:34:21.576Z,3124.00
2022-10-17T07:35:21.619Z,3116.00
2022-10-17T07:36:21.605Z,3144.00
2022-10-17T07:37:21.566Z,3164.00
2022-10-17T07:38:21.571Z,3160.00
2022-10-17T07:39:21.723Z,3196.00
2022-10-17T07:40:21.533Z,3204.00
2022-10-17T07:41:21.948Z,3216.00
2022-10-17T07:42:21.602Z,3216.00
2022-10-17T07:43:21.502Z,3196.00
2022-10-17T07:44:21.512Z,3164.00
2022-10-17T07:45:21.882Z,3160.00
2022-10-17T07:46:21.469Z,3120.00
2022-10-17T07:47:21.870Z,3092.00
2022-10-17T07:48:23.146Z,3100.00
2022-10-17T07:49:21.441Z,3152.00
2022-10-17T07:50:21.619Z,3200.00
2022-10-17T07:51:23.479Z,3252.00
2022-10-17T07:52:23.856Z,3312.00
2022-10-17T07:53:21.401Z,3348.00
2022-10-17T07:54:21.393Z,3368.00
2022-10-17T07:55:21.635Z,3400.00
2022-10-17T07:56:21.472Z,3404.00
2022-10-17T07:57:21.348Z,3408.00
2022-10-17T07:58:21.365Z,3416.00
2022-10-17T07:59:22.204Z,3500.00
2022-10-17T08:00:27.205Z,3640.00
2022-10-17T08:01:23.336Z,3768.00
2022-10-17T08:02:21.297Z,3864.00
2022-10-17T08:03:21.323Z,4004.00
2022-10-17T08:04:21.279Z,4160.00
2022-10-17T08:05:24.667Z,4296.00
2022-10-17T08:06:22.137Z,4344.00
2022-10-17T08:07:25.335Z,4328.00
2022-10-17T08:08:22.242Z,4348.00
2022-10-17T08:09:22.190Z,4272.00
2022-10-17T08:10:23.792Z,4188.00
2022-10-17T08:11:21.454Z,4060.00
2022-10-17T08:12:22.149Z,3936.00
2022-10-17T08:13:21.184Z,3836.00
2022-10-17T08:14:21.173Z,3740.00
2022-10-17T08:16:26.273Z,3420.00
2022-10-17T08:17:21.218Z,3344.00
2022-10-17T08:19:27.633Z,3428.00
2022-10-17T08:22:54.186Z,3368.00
2022-10-17T08:26:04.060Z,3260.00
2022-10-17T08:28:21.402Z,3180.00
2022-10-17T08:29:28.930Z,3156.00
2022-10-17T08:30:20.295Z,3144.00
2022-10-17T08:32:30.350Z,2928.00
2022-10-17T08:33:30.099Z,3020.00
2022-10-17T08:34:30.430Z,3104.00
2022-10-17T08:35:30.762Z,3156.00
2022-10-17T08:36:30.023Z,3184.00
2022-10-17T08:37:35.441Z,3192.00
2022-10-17T08:38:35.580Z,3160.00
2022-10-17T08:39:30.282Z,3236.00
2022-10-17T08:40:34.718Z,3232.00
2022-10-17T08:41:30.204Z,3224.00
2022-10-17T08:42:32.005Z,3232.00
2022-10-17T08:43:33.294Z,3212.00
2022-10-17T08:44:30.934Z,3208.00
2022-10-17T08:45:29.920Z,3208.00
2022-10-17T08:46:29.908Z,3240.00
2022-10-17T08:47:30.129Z,3228.00
2022-10-17T08:48:32.448Z,3244.00
2022-10-17T08:49:29.902Z,3256.00
2022-10-17T08:50:29.864Z,3272.00
2022-10-17T08:51:30.766Z,3292.00
2022-10-17T08:52:29.907Z,3296.00
2022-10-17T08:53:32.892Z,3280.00
2022-10-17T08:54:33.098Z,3276.00
2022-10-17T08:55:29.857Z,3276.00
2022-10-17T08:56:44.513Z,3264.00
2022-10-17T08:57:31.236Z,3280.00
2022-10-17T08:58:30.327Z,3292.00
2022-10-17T08:59:44.298Z,3284.00
2022-10-17T09:00:30.166Z,3244.00
2022-10-17T09:01:29.760Z,3320.00
2022-10-17T09:02:35.569Z,3292.00
2022-10-17T09:03:30.450Z,3328.00
2022-10-17T09:04:29.763Z,3360.00
2022-10-17T09:05:34.314Z,3368.00
2022-10-17T09:06:29.695Z,3364.00
2022-10-17T09:07:30.089Z,3336.00
2022-10-17T09:08:37.163Z,3356.00
2022-10-17T09:09:32.016Z,3360.00
2022-10-17T09:10:29.671Z,3364.00
2022-10-17T09:11:30.380Z,3368.00
2022-10-17T09:12:30.654Z,3376.00
2022-10-17T09:13:29.954Z,3380.00
2022-10-17T09:14:33.660Z,3360.00
2022-10-17T09:15:30.268Z,3364.00
2022-10-17T09:16:31.288Z,3372.00
2022-10-17T09:17:33.105Z,3396.00
2022-10-17T09:18:31.002Z,3384.00
2022-10-17T09:19:29.566Z,3360.00
2022-10-17T09:20:30.369Z,3344.00
2022-10-17T09:21:32.980Z,3344.00
2022-10-17T09:22:29.528Z,3344.00
2022-10-17T09:23:30.494Z,3320.00
2022-10-17T09:24:29.511Z,3308.00
2022-10-17T09:25:33.620Z,3288.00
2022-10-17T09:26:34.003Z,3300.00
2022-10-17T09:27:29.733Z,3320.00
2022-10-17T09:28:33.395Z,3332.00
2022-10-17T09:29:41.496Z,3344.00
2022-10-17T09:31:39.797Z,3400.00
2022-10-17T09:32:40.737Z,3436.00
2022-10-17T09:35:01.983Z,3516.00
2022-10-17T09:36:01.493Z,3568.00
2022-10-17T09:37:01.096Z,3624.00
2022-10-17T09:38:04.164Z,3664.00
2022-10-17T09:39:03.926Z,3720.00
2022-10-17T09:40:00.976Z,3752.00
2022-10-17T09:41:15.789Z,3772.00
2022-10-17T09:42:02.097Z,3796.00
2022-10-17T09:43:09.690Z,3832.00
2022-10-17T09:44:01.944Z,3884.00
2022-10-17T09:45:00.933Z,3968.00
2022-10-17T09:46:01.229Z,4044.00
2022-10-17T09:47:03.336Z,4152.00
2022-10-17T09:48:02.147Z,4324.00
2022-10-17T09:50:02.337Z,4728.00
2022-10-17T09:51:21.749Z,4976.00
2022-10-17T09:52:05.248Z,5264.00
2022-10-17T09:53:08.910Z,5540.00
